sensor_id;sensor_type;location;lat;lon;timestamp;temperature;humidity
3998;DHT22;61314;53.444;9.902;2022-12-07T13:09:32;3.30;99.90
3998;DHT22;61314;53.444;9.902;2022-12-07T13:12:13;3.30;99.90
3998;DHT22;61314;53.444;9.902;2022-12-07T13:20:01;3.30;99.90
3998;DHT22;61314;53.444;9.902;2022-12-07T13:27:55;3.30;99.90
3998;DHT22;61314;53.444;9.902;2022-12-07T13:30:24;3.30;99.90
3998;DHT22;61314;53.444;9.902;2022-12-07T13:32:56;3.30;99.90
3998;DHT22;61314;53.444;9.902;2022-12-07T13:35:33;3.40;99.90
3998;DHT22;61314;53.444;9.902;2022-12-07T13:38:22;3.30;99.90
3998;DHT22;61314;53.444;9.902;2022-12-07T13:41:16;3.30;99.90
3998;DHT22;61314;53.444;9.902;2022-12-07T13:43:50;3.30;99.90
3998;DHT22;61314;53.444;9.902;2022-12-07T13:46:19;3.30;99.90
3998;DHT22;61314;53.444;9.902;2022-12-07T13:48:50;3.30;99.90
3998;DHT22;61314;53.444;9.902;2022-12-07T13:51:23;3.30;99.90
3998;DHT22;61314;53.444;9.902;2022-12-07T13:53:55;3.30;99.90
3998;DHT22;61314;53.444;9.902;2022-12-07T13:56:34;3.20;99.90
3998;DHT22;61314;53.444;9.902;2022-12-07T13:59:02;3.20;99.90
3998;DHT22;61314;53.444;9.902;2022-12-07T14:01:31;3.20;99.90
3998;DHT22;61314;53.444;9.902;2022-12-07T14:04:37;3.20;99.90
3998;DHT22;61314;53.444;9.902;2022-12-07T14:07:26;3.20;99.90
3998;DHT22;61314;53.444;9.902;2022-12-07T14:10:22;3.20;99.90
3998;DHT22;61314;53.444;9.902;2022-12-07T14:12:49;3.20;99.90
3998;DHT22;61314;53.444;9.902;2022-12-07T14:15:26;3.10;99.90
3998;DHT22;61314;53.444;9.902;2022-12-07T14:17:55;3.20;99.90
3998;DHT22;61314;53.444;9.902;2022-12-07T14:23:00;3.10;99.90
3998;DHT22;61314;53.444;9.902;2022-12-07T14:25:46;3.10;99.90
3998;DHT22;61314;53.444;9.902;2022-12-07T14:28:31;3.10;99.90
3998;DHT22;61314;53.444;9.902;2022-12-07T14:30:59;3.10;99.90
3998;DHT22;61314;53.444;9.902;2022-12-07T14:33:27;3.10;99.90
3998;DHT22;61314;53.444;9.902;2022-12-07T14:35:54;3.10;99.90
3998;DHT22;61314;53.444;9.902;2022-12-07T14:38:22;3.10;99.90
3998;DHT22;61314;53.444;9.902;2022-12-07T14:40:49;3.10;99.90
3998;DHT22;61314;53.444;9.902;2022-12-07T14:43:16;3.10;99.90
3998;DHT22;61314;53.444;9.902;2022-12-07T14:45:43;3.10;99.90
3998;DHT22;61314;53.444;9.902;2022-12-07T14:48:15;3.10;99.90
3998;DHT22;61314;53.444;9.902;2022-12-07T14:51:02;3.10;99.90
3998;DHT22;61314;53.444;9.902;2022-12-07T14:53:51;3.10;99.90
3998;DHT22;61314;53.444;9.902;2022-12-07T14:56:23;3.10;99.90
3998;DHT22;61314;53.444;9.902;2022-12-07T14:58:50;3.10;99.90
3998;DHT22;61314;53.444;9.902;2022-12-07T15:01:16;3.00;99.90
3998;DHT22;61314;53.444;9.902;2022-12-07T15:03:43;3.00;99.90
3998;DHT22;61314;53.444;9.902;2022-12-07T15:06:14;3.00;99.90
3998;DHT22;61314;53.444;9.902;2022-12-07T15:08:41;3.00;99.90
3998;DHT22;61314;53.444;9.902;2022-12-07T15:11:12;3.00;99.90
3998;DHT22;61314;53.444;9.902;2022-12-07T15:13:39;3.00;99.90
3998;DHT22;61314;53.444;9.902;2022-12-07T15:16:24;2.90;99.90
3998;DHT22;61314;53.444;9.902;2022-12-07T15:18:51;2.90;99.90
3998;DHT22;61314;53.444;9.902;2022-12-07T15:21:37;2.90;99.90
3998;DHT22;61314;53.444;9.902;2022-12-07T15:24:04;2.90;99.90
3998;DHT22;61314;53.444;9.902;2022-12-07T15:26:31;2.90;99.90
3998;DHT22;61314;53.444;9.902;2022-12-07T15:28:58;2.90;99.90
3998;DHT22;61314;53.444;9.902;2022-12-07T15:31:24;2.80;99.90
3998;DHT22;61314;53.444;9.902;2022-12-07T15:34:11;2.80;99.90
3998;DHT22;61314;53.444;9.902;2022-12-07T15:36:37;2.80;99.90
3998;DHT22;61314;53.444;9.902;2022-12-07T15:39:04;2.80;99.90
3998;DHT22;61314;53.444;9.902;2022-12-07T15:41:40;2.80;99.90
3998;DHT22;61314;53.444;9.902;2022-12-07T15:44:08;2.80;99.90
3998;DHT22;61314;53.444;9.902;2022-12-07T15:46:56;2.80;99.90
3998;DHT22;61314;53.444;9.902;2022-12-07T15:49:23;2.70;99.90
3998;DHT22;61314;53.444;9.902;2022-12-07T15:51:50;2.70;99.90
3998;DHT22;61314;53.444;9.902;2022-12-07T15:54:25;2.70;99.90
3998;DHT22;61314;53.444;9.902;2022-12-07T15:56:52;2.70;99.90
3998;DHT22;61314;53.444;9.902;2022-12-07T15:59:19;2.70;99.90
3998;DHT22;61314;53.444;9.902;2022-12-07T16:01:46;2.70;99.90
3998;DHT22;61314;53.444;9.902;2022-12-07T16:04:13;2.70;99.90
3998;DHT22;61314;53.444;9.902;2022-12-07T16:06:39;2.70;99.90
3998;DHT22;61314;53.444;9.902;2022-12-07T16:09:06;2.60;99.90
3998;DHT22;61314;53.444;9.902;2022-12-07T16:11:33;2.60;99.90
3998;DHT22;61314;53.444;9.902;2022-12-07T16:14:00;2.60;99.90
3998;DHT22;61314;53.444;9.902;2022-12-07T16:16:27;2.60;99.90
3998;DHT22;61314;53.444;9.902;2022-12-07T16:18:54;2.60;99.90
3998;DHT22;61314;53.444;9.902;2022-12-07T16:21:21;2.50;99.90
3998;DHT22;61314;53.444;9.902;2022-12-07T16:23:51;2.50;99.90
3998;DHT22;61314;53.444;9.902;2022-12-07T16:26:20;2.50;99.90
3998;DHT22;61314;53.444;9.902;2022-12-07T16:28:50;2.50;99.90
3998;DHT22;61314;53.444;9.902;2022-12-07T16:31:20;2.40;99.90
3998;DHT22;61314;53.444;9.902;2022-12-07T16:33:48;2.40;99.90
3998;DHT22;61314;53.444;9.902;2022-12-07T16:36:16;2.40;99.90
3998;DHT22;61314;53.444;9.902;2022-12-07T16:39:04;2.40;99.90
3998;DHT22;61314;53.444;9.902;2022-12-07T16:41:31;2.30;99.90
3998;DHT22;61314;53.444;9.902;2022-12-07T16:44:02;2.30;99.90
3998;DHT22;61314;53.444;9.902;2022-12-07T16:46:29;2.30;99.90
3998;DHT22;61314;53.444;9.902;2022-12-07T16:48:57;2.30;99.90
3998;DHT22;61314;53.444;9.902;2022-12-07T16:51:24;2.30;99.90
3998;DHT22;61314;53.444;9.902;2022-12-07T16:53:52;2.20;99.90
3998;DHT22;61314;53.444;9.902;2022-12-07T16:56:19;2.20;99.90
3998;DHT22;61314;53.444;9.902;2022-12-07T16:58:46;2.20;99.90
3998;DHT22;61314;53.444;9.902;2022-12-07T17:01:17;2.20;99.90
3998;DHT22;61314;53.444;9.902;2022-12-07T17:03:44;2.10;99.90
3998;DHT22;61314;53.444;9.902;2022-12-07T17:06:20;2.10;99.90
3998;DHT22;61314;53.444;9.902;2022-12-07T17:08:48;2.10;99.90
3998;DHT22;61314;53.444;9.902;2022-12-07T17:11:26;2.10;99.90
3998;DHT22;61314;53.444;9.902;2022-12-07T17:13:54;2.10;99.90
3998;DHT22;61314;53.444;9.902;2022-12-07T17:16:39;2.00;99.90
3998;DHT22;61314;53.444;9.902;2022-12-07T17:19:08;2.00;99.90
3998;DHT22;61314;53.444;9.902;2022-12-07T17:21:35;2.00;99.90
3998;DHT22;61314;53.444;9.902;2022-12-07T17:24:04;2.00;99.90
3998;DHT22;61314;53.444;9.902;2022-12-07T17:26:31;2.00;99.90
3998;DHT22;61314;53.444;9.902;2022-12-07T17:29:02;2.00;99.90
3998;DHT22;61314;53.444;9.902;2022-12-07T19:37:48;1.20;99.90
3998;DHT22;61314;53.444;9.902;2022-12-07T19:40:14;1.20;99.90
3998;DHT22;61314;53.444;9.902;2022-12-07T19:42:41;1.20;99.90
3998;DHT22;61314;53.444;9.902;2022-12-07T19:45:08;1.10;99.90
3998;DHT22;61314;53.444;9.902;2022-12-07T19:47:34;1.10;99.90
3998;DHT22;61314;53.444;9.902;2022-12-07T19:50:01;1.10;99.90
3998;DHT22;61314;53.444;9.902;2022-12-07T19:52:27;1.10;99.90
3998;DHT22;61314;53.444;9.902;2022-12-07T19:55:01;1.10;99.90
3998;DHT22;61314;53.444;9.902;2022-12-07T19:57:28;1.10;99.90
3998;DHT22;61314;53.444;9.902;2022-12-07T19:59:55;1.10;99.90
3998;DHT22;61314;53.444;9.902;2022-12-07T20:02:21;1.10;99.90
3998;DHT22;61314;53.444;9.902;2022-12-07T20:04:48;1.00;99.90
3998;DHT22;61314;53.444;9.902;2022-12-07T20:07:14;1.00;99.90
3998;DHT22;61314;53.444;9.902;2022-12-07T20:09:41;1.00;99.90
3998;DHT22;61314;53.444;9.902;2022-12-07T20:12:08;1.00;99.90
